Time;durP1;ratioP1;P1;durP2;ratioP2;P2;SDS_P1;SDS_P2;PMS_P1;PMS_P2;Temp;Humidity;BMP_temperature;BMP_pressure;BME280_temperature;BME280_humidity;BME280_pressure;Samples;Min_cycle;Max_cycle;Signal;HPM_P1;HPM_P2
2023/04/12 00:01:57;;;;;;;7.57;1.10;;;7.60;99.00;;;;;;5076356;28;20958;-79
2023/04/12 00:04:27;;;;;;;4.03;1.20;;;7.50;99.60;;;;;;5083318;28;20170;-83
2023/04/12 00:06:53;;;;;;;2.43;1.47;;;7.40;99.90;;;;;;5088117;28;20233;-83
2023/04/12 00:09:19;;;;;;;2.97;1.70;;;7.30;99.90;;;;;;5090707;28;20422;-83
2023/04/12 00:11:45;;;;;;;5.60;1.30;;;7.30;99.90;;;;;;5092124;28;20446;-83
2023/04/12 00:14:10;;;;;;;6.53;2.00;;;7.10;99.90;;;;;;5090433;28;20443;-83
2023/04/12 00:16:37;;;;;;;5.37;1.67;;;7.20;99.90;;;;;;5089641;28;20189;-83
2023/04/12 00:19:03;;;;;;;5.43;2.03;;;7.00;99.90;;;;;;5071022;28;20246;-75
2023/04/12 00:21:29;;;;;;;13.23;2.47;;;7.00;99.90;;;;;;5069068;28;21976;-73
2023/04/12 00:23:55;;;;;;;4.70;1.57;;;6.90;99.90;;;;;;5066489;28;20435;-76
2023/04/12 00:26:21;;;;;;;6.70;1.57;;;6.90;99.90;;;;;;5068332;28;20209;-76
2023/04/12 00:28:47;;;;;;;2.57;1.27;;;6.90;99.90;;;;;;5065806;28;20454;-76
2023/04/12 00:31:13;;;;;;;3.90;1.67;;;6.80;99.90;;;;;;5068779;28;20200;-76
2023/04/12 00:33:38;;;;;;;3.47;1.77;;;6.80;99.90;;;;;;5068817;28;20439;-79
2023/04/12 00:36:04;;;;;;;2.90;1.30;;;6.70;99.90;;;;;;5070052;28;20180;-77
2023/04/12 00:38:30;;;;;;;5.90;1.33;;;6.80;99.90;;;;;;5067863;28;20189;-79
2023/04/12 00:40:55;;;;;;;5.23;1.90;;;6.70;99.90;;;;;;5072262;28;20189;-78
2023/04/12 00:43:22;;;;;;;6.13;2.43;;;6.70;99.90;;;;;;5070173;28;20209;-78
2023/04/12 00:45:48;;;;;;;2.67;1.20;;;6.70;99.90;;;;;;5071210;28;20704;-77
2023/04/12 00:48:15;;;;;;;6.60;1.90;;;6.60;99.90;;;;;;5088110;28;20459;-77
2023/04/12 00:50:43;;;;;;;2.60;1.27;;;6.50;99.90;;;;;;5070225;28;20446;-77
2023/04/12 00:53:12;;;;;;;9.20;1.80;;;6.50;99.90;;;;;;5067635;28;20435;-77
2023/04/12 00:55:45;;;;;;;5.23;1.60;;;6.60;99.90;;;;;;5069794;28;20422;-77
2023/04/12 00:58:12;;;;;;;7.73;1.67;;;6.60;99.90;;;;;;5070152;28;21005;-77
2023/04/12 01:00:38;;;;;;;8.43;1.27;;;6.60;99.90;;;;;;5068254;28;20431;-76
2023/04/12 01:03:07;;;;;;;3.97;1.70;;;6.60;99.90;;;;;;5070450;28;20431;-76
2023/04/12 01:05:38;;;;;;;2.90;0.93;;;6.50;99.90;;;;;;5070568;28;20422;-77
2023/04/12 01:08:06;;;;;;;5.43;1.70;;;6.50;99.90;;;;;;5070394;28;20527;-77
2023/04/12 01:10:43;;;;;;;7.13;1.53;;;6.50;99.90;;;;;;5070396;28;20458;-78
2023/04/12 01:13:36;;;;;;;2.50;1.17;;;6.50;99.90;;;;;;5071333;28;20526;-78
2023/04/12 01:16:27;;;;;;;3.97;1.43;;;6.50;99.90;;;;;;5075070;28;20402;-77
2023/04/12 01:18:58;;;;;;;13.87;2.00;;;6.50;99.90;;;;;;5076929;28;20574;-78
2023/04/12 01:21:54;;;;;;;3.87;2.50;;;6.50;99.90;;;;;;5076568;28;20447;-77
2023/04/12 01:24:51;;;;;;;3.67;1.23;;;6.50;99.90;;;;;;5093136;28;20478;-83
2023/04/12 01:27:28;;;;;;;3.00;1.67;;;6.50;99.90;;;;;;5096342;28;20451;-82
2023/04/12 01:29:57;;;;;;;3.10;1.33;;;6.40;99.90;;;;;;5097834;28;20419;-81
2023/04/12 01:32:23;;;;;;;3.50;1.80;;;6.40;99.90;;;;;;5096001;28;20522;-81
2023/04/12 01:34:50;;;;;;;4.83;1.60;;;6.50;99.90;;;;;;5093387;28;20422;-82
2023/04/12 01:37:18;;;;;;;3.30;1.50;;;6.50;99.90;;;;;;5076795;28;20430;-76
2023/04/12 01:39:45;;;;;;;2.80;1.23;;;6.40;99.90;;;;;;5087780;28;20850;-76
2023/04/12 01:42:11;;;;;;;5.80;1.30;;;6.30;99.90;;;;;;5073169;28;20443;-78
2023/04/12 01:44:36;;;;;;;3.27;1.50;;;6.30;99.90;;;;;;5069725;28;20784;-76
2023/04/12 01:47:02;;;;;;;3.33;1.47;;;6.40;99.90;;;;;;5071999;28;20537;-76
2023/04/12 01:49:37;;;;;;;5.10;1.77;;;6.40;99.90;;;;;;5073710;28;20625;-76
2023/04/12 01:52:13;;;;;;;2.20;1.37;;;6.30;99.90;;;;;;5074207;28;20204;-76
2023/04/12 01:54:41;;;;;;;4.00;1.80;;;6.40;99.90;;;;;;5070882;28;20407;-76
2023/04/12 01:57:08;;;;;;;5.53;1.20;;;6.40;99.90;;;;;;5068018;28;20424;-76
2023/04/12 01:59:40;;;;;;;4.40;1.33;;;6.50;99.90;;;;;;5070848;28;20454;-79
2023/04/12 02:02:08;;;;;;;4.10;1.57;;;6.40;99.90;;;;;;5072267;28;21018;-79
2023/04/12 02:04:36;;;;;;;8.20;2.03;;;6.40;99.90;;;;;;5074452;28;20459;-77
2023/04/12 02:07:02;;;;;;;8.30;1.40;;;6.40;99.90;;;;;;5075062;28;20425;-76
2023/04/12 02:09:28;;;;;;;3.50;1.33;;;6.40;99.90;;;;;;5072589;28;20407;-76
2023/04/12 02:11:53;;;;;;;2.23;1.00;;;6.40;99.90;;;;;;5074135;28;20506;-76
2023/04/12 02:14:20;;;;;;;4.97;1.60;;;6.40;99.90;;;;;;5071619;28;20227;-76
2023/04/12 02:16:46;;;;;;;7.40;2.10;;;6.40;99.90;;;;;;5071359;28;20185;-77
2023/04/12 02:19:12;;;;;;;2.60;1.23;;;6.30;99.90;;;;;;5072799;28;20794;-77
2023/04/12 02:21:42;;;;;;;4.10;2.30;;;6.30;99.90;;;;;;5072083;28;20431;-77
2023/04/12 02:24:08;;;;;;;4.73;1.60;;;6.30;99.90;;;;;;5069372;28;20184;-76
2023/04/12 02:26:35;;;;;;;4.43;1.87;;;6.40;99.90;;;;;;5072134;28;20424;-76
2023/04/12 02:29:00;;;;;;;6.80;1.60;;;6.30;99.90;;;;;;5072926;28;20463;-76
2023/04/12 02:31:26;;;;;;;8.70;2.73;;;6.40;99.90;;;;;;5074512;28;20612;-77
2023/04/12 02:33:52;;;;;;;9.63;1.53;;;6.40;99.90;;;;;;5075430;28;20173;-76
2023/04/12 02:36:18;;;;;;;5.80;1.23;;;6.30;99.90;;;;;;5073808;28;20422;-78
2023/04/12 02:38:43;;;;;;;3.70;1.67;;;6.30;99.90;;;;;;5073199;28;20521;-76
2023/04/12 02:41:15;;;;;;;1.80;1.27;;;6.30;99.90;;;;;;5074436;28;20225;-77
2023/04/12 02:43:41;;;;;;;6.63;1.60;;;6.30;99.90;;;;;;5070293;28;20196;-76
2023/04/12 02:46:06;;;;;;;7.27;1.03;;;6.30;99.90;;;;;;5073502;28;20431;-77
2023/04/12 02:48:32;;;;;;;3.00;1.30;;;6.30;99.90;;;;;;5071468;28;20197;-78
2023/04/12 02:50:57;;;;;;;3.87;1.70;;;6.30;99.90;;;;;;5088970;28;20177;-74
2023/04/12 02:53:23;;;;;;;5.20;1.70;;;6.40;99.90;;;;;;5070319;28;20201;-76
2023/04/12 02:55:49;;;;;;;6.87;1.57;;;6.30;99.90;;;;;;5073850;28;20273;-78
2023/04/12 02:58:15;;;;;;;9.83;1.43;;;6.40;99.90;;;;;;5073129;28;20184;-78
2023/04/12 03:00:42;;;;;;;2.07;1.37;;;6.30;99.90;;;;;;5072985;28;20185;-76
2023/04/12 03:03:08;;;;;;;3.00;1.23;;;6.30;99.90;;;;;;5071335;28;20443;-78
2023/04/12 03:05:35;;;;;;;4.60;1.23;;;6.30;99.90;;;;;;5071384;28;20431;-76
2023/04/12 03:08:01;;;;;;;2.00;1.23;;;6.30;99.90;;;;;;5069581;28;20205;-77
2023/04/12 03:10:27;;;;;;;3.73;1.53;;;6.30;99.90;;;;;;5068210;28;20429;-78
2023/04/12 03:12:52;;;;;;;6.43;1.70;;;6.30;99.90;;;;;;5085531;28;20448;-76
2023/04/12 03:15:18;;;;;;;3.73;2.00;;;6.20;99.90;;;;;;5070693;28;20178;-77
2023/04/12 03:17:43;;;;;;;2.27;1.23;;;6.30;99.90;;;;;;5069149;28;20276;-77
2023/04/12 03:20:09;;;;;;;3.40;1.30;;;6.30;99.90;;;;;;5070196;28;20181;-76
2023/04/12 03:22:36;;;;;;;2.50;0.93;;;6.30;99.90;;;;;;5069765;28;20569;-76
2023/04/12 03:25:03;;;;;;;3.47;1.30;;;6.30;99.90;;;;;;5067591;28;20447;-76
2023/04/12 03:27:29;;;;;;;5.07;2.20;;;6.30;99.90;;;;;;5085517;28;20459;-76
2023/04/12 03:29:55;;;;;;;2.90;1.33;;;6.30;99.90;;;;;;5070108;28;20941;-77
2023/04/12 03:32:20;;;;;;;2.13;1.30;;;6.30;99.90;;;;;;5069866;28;20251;-76
2023/04/12 03:34:46;;;;;;;2.33;1.43;;;6.30;99.90;;;;;;5070131;28;20450;-78
2023/04/12 03:37:12;;;;;;;4.13;1.13;;;6.30;99.90;;;;;;5065786;28;20695;-78
2023/04/12 03:39:38;;;;;;;2.07;1.50;;;6.30;99.90;;;;;;5066432;28;20548;-78
2023/04/12 03:42:03;;;;;;;5.20;1.50;;;6.30;99.90;;;;;;5067648;28;20739;-78
2023/04/12 03:44:29;;;;;;;2.10;1.40;;;6.30;99.90;;;;;;5068020;28;20182;-77
2023/04/12 03:46:55;;;;;;;1.87;1.20;;;6.30;99.90;;;;;;5070166;28;20624;-81
2023/04/12 03:49:20;;;;;;;2.10;1.30;;;6.30;99.90;;;;;;5068521;28;20205;-77
2023/04/12 03:51:49;;;;;;;2.97;1.20;;;6.30;99.90;;;;;;5068857;28;20207;-77
2023/04/12 03:54:15;;;;;;;2.50;0.90;;;6.30;99.90;;;;;;5069259;28;20671;-77
2023/04/12 03:56:40;;;;;;;2.63;1.10;;;6.30;99.90;;;;;;5069482;28;20423;-77
2023/04/12 03:59:06;;;;;;;2.80;0.93;;;6.30;99.90;;;;;;5066034;28;20934;-76
2023/04/12 04:01:33;;;;;;;4.30;1.57;;;6.30;99.90;;;;;;5069308;28;20250;-78
2023/04/12 04:03:59;;;;;;;5.47;1.03;;;6.40;99.90;;;;;;5068369;28;20415;-76
2023/04/12 04:06:25;;;;;;;1.77;0.83;;;6.30;99.90;;;;;;5069272;28;20419;-77
2023/04/12 04:08:51;;;;;;;1.53;0.60;;;6.30;99.90;;;;;;5067243;28;20823;-76
2023/04/12 04:11:17;;;;;;;9.03;1.73;;;6.20;99.90;;;;;;5069234;28;20420;-76
2023/04/12 04:13:42;;;;;;;5.20;1.20;;;6.30;99.90;;;;;;5083251;28;20201;-76
2023/04/12 04:16:11;;;;;;;1.50;0.90;;;6.20;99.90;;;;;;5069746;28;20185;-76
2023/04/12 04:18:37;;;;;;;6.60;1.50;;;6.20;99.90;;;;;;5065863;28;20255;-76
2023/04/12 04:21:03;;;;;;;1.80;1.23;;;6.20;99.90;;;;;;5069286;28;20420;-76
2023/04/12 04:23:37;;;;;;;3.10;1.47;;;6.20;99.90;;;;;;5067122;28;20205;-77
2023/04/12 04:26:05;;;;;;;2.80;1.60;;;6.20;99.90;;;;;;5069432;28;20636;-76
2023/04/12 04:28:32;;;;;;;4.27;1.93;;;6.20;99.90;;;;;;5069777;28;20469;-78
2023/04/12 04:31:02;;;;;;;2.20;1.67;;;6.00;99.90;;;;;;5069040;28;20444;-76
2023/04/12 04:33:28;;;;;;;12.40;2.27;;;6.10;99.90;;;;;;5067998;28;20822;-76
2023/04/12 04:35:55;;;;;;;3.10;1.63;;;6.10;99.90;;;;;;5069743;28;20522;-75
2023/04/12 04:38:24;;;;;;;6.37;1.60;;;6.10;99.90;;;;;;5068180;28;20628;-78
2023/04/12 04:40:54;;;;;;;5.27;1.90;;;6.10;99.90;;;;;;5068839;28;20808;-76
2023/04/12 04:43:20;;;;;;;1.70;1.20;;;6.10;99.90;;;;;;5067944;28;20454;-77
2023/04/12 04:45:48;;;;;;;4.03;1.30;;;6.00;99.90;;;;;;5069786;28;20848;-78
2023/04/12 04:48:15;;;;;;;3.57;1.70;;;6.10;99.90;;;;;;5069661;28;20508;-77
2023/04/12 04:50:40;;;;;;;2.50;1.23;;;6.10;99.90;;;;;;5072618;28;20423;-76
2023/04/12 04:53:06;;;;;;;2.87;2.20;;;6.10;99.90;;;;;;5075349;28;20442;-76
2023/04/12 04:55:32;;;;;;;3.40;1.60;;;6.10;99.90;;;;;;5073688;28;20274;-76
2023/04/12 04:57:58;;;;;;;2.17;1.20;;;6.10;99.90;;;;;;5069719;28;20246;-79
2023/04/12 05:00:24;;;;;;;1.70;1.10;;;6.10;99.90;;;;;;5074290;28;20181;-77
2023/04/12 05:02:50;;;;;;;5.67;1.90;;;6.00;99.90;;;;;;5071915;28;20200;-78
2023/04/12 05:05:16;;;;;;;3.53;1.67;;;6.00;99.90;;;;;;5072525;28;20426;-79
2023/04/12 05:07:42;;;;;;;2.20;1.47;;;6.10;99.90;;;;;;5070991;28;20447;-79
2023/04/12 05:10:09;;;;;;;2.73;1.60;;;6.10;99.90;;;;;;5072098;28;20427;-77
2023/04/12 05:12:36;;;;;;;3.30;1.40;;;6.10;99.90;;;;;;5071447;28;20241;-73
2023/04/12 05:15:02;;;;;;;5.20;1.90;;;6.10;99.90;;;;;;5066406;28;20419;-76
2023/04/12 05:17:28;;;;;;;2.53;1.30;;;6.10;99.90;;;;;;5067466;28;20803;-77
2023/04/12 05:19:54;;;;;;;2.27;1.17;;;6.10;99.90;;;;;;5071439;28;20423;-77
2023/04/12 05:22:20;;;;;;;5.30;2.30;;;6.10;99.90;;;;;;5069141;28;20687;-75
2023/04/12 05:24:49;;;;;;;2.73;1.37;;;6.10;99.90;;;;;;5070267;28;20419;-76
2023/04/12 05:27:15;;;;;;;5.07;1.90;;;6.20;99.90;;;;;;5069505;28;20462;-75
2023/04/12 05:29:42;;;;;;;2.33;1.60;;;6.10;99.90;;;;;;5072343;28;20522;-75
2023/04/12 05:32:07;;;;;;;1.77;1.23;;;6.10;99.90;;;;;;5069433;28;20494;-75
2023/04/12 05:34:33;;;;;;;2.13;1.20;;;6.10;99.90;;;;;;5072651;28;20473;-75
2023/04/12 05:36:59;;;;;;;6.50;1.73;;;6.20;99.90;;;;;;5073933;28;20675;-75
2023/04/12 05:39:26;;;;;;;2.13;1.10;;;6.20;99.90;;;;;;5076418;28;20177;-76
2023/04/12 05:41:52;;;;;;;1.63;1.23;;;6.20;99.90;;;;;;5073365;28;20759;-75
2023/04/12 05:44:17;;;;;;;6.40;2.13;;;6.20;99.90;;;;;;5077153;28;20426;-76
2023/04/12 05:46:43;;;;;;;3.33;1.40;;;6.30;99.90;;;;;;5078093;28;20443;-75
2023/04/12 05:49:08;;;;;;;2.87;1.33;;;6.40;99.90;;;;;;5081269;28;20231;-78
2023/04/12 05:51:34;;;;;;;3.10;1.47;;;6.40;99.90;;;;;;5085114;28;20556;-78
2023/04/12 05:54:00;;;;;;;1.57;1.13;;;6.50;99.90;;;;;;5094254;28;20189;-82
2023/04/12 05:56:26;;;;;;;2.00;1.00;;;6.50;99.90;;;;;;5097982;28;20259;-82
2023/04/12 05:58:51;;;;;;;4.40;1.70;;;6.50;99.90;;;;;;5099297;28;20197;-82
2023/04/12 06:01:18;;;;;;;3.40;1.50;;;6.50;99.90;;;;;;5095292;28;20435;-81
2023/04/12 06:03:45;;;;;;;8.53;1.20;;;6.60;99.90;;;;;;5096893;28;20185;-82
2023/04/12 06:06:10;;;;;;;5.10;1.33;;;6.60;99.90;;;;;;5093118;28;20433;-82
2023/04/12 06:08:37;;;;;;;2.40;1.50;;;6.50;99.90;;;;;;5093657;28;20482;-82
2023/04/12 06:11:03;;;;;;;2.47;1.30;;;6.70;99.90;;;;;;5092569;28;20216;-81
2023/04/12 06:13:29;;;;;;;3.23;1.30;;;6.70;99.90;;;;;;5094214;28;20440;-82
2023/04/12 06:15:55;;;;;;;3.63;1.20;;;6.70;99.90;;;;;;5085420;28;20470;-74
2023/04/12 06:18:21;;;;;;;1.83;0.80;;;6.80;99.90;;;;;;5069983;28;20177;-75
2023/04/12 06:20:46;;;;;;;2.33;1.30;;;6.70;99.90;;;;;;5070622;28;20181;-76
2023/04/12 06:23:12;;;;;;;2.40;1.30;;;6.80;99.90;;;;;;5072616;28;20217;-75
2023/04/12 06:25:38;;;;;;;5.43;1.27;;;6.80;99.90;;;;;;5070054;28;20189;-75
2023/04/12 06:28:03;;;;;;;2.97;1.30;;;6.90;99.90;;;;;;5069720;28;20209;-75
2023/04/12 06:30:29;;;;;;;2.13;1.20;;;6.90;99.90;;;;;;5073247;28;20174;-75
2023/04/12 06:32:55;;;;;;;2.33;1.40;;;6.90;99.90;;;;;;5073334;28;20265;-74
2023/04/12 06:35:21;;;;;;;1.70;1.10;;;6.90;99.90;;;;;;5070634;28;20186;-75
2023/04/12 06:37:47;;;;;;;11.13;1.10;;;7.00;99.90;;;;;;5070245;28;20510;-76
2023/04/12 06:40:13;;;;;;;6.37;1.73;;;7.00;99.90;;;;;;5069826;28;20188;-75
2023/04/12 06:42:38;;;;;;;3.00;1.40;;;7.00;99.90;;;;;;5066782;28;20448;-78
2023/04/12 06:45:04;;;;;;;3.40;1.20;;;7.10;99.90;;;;;;5073503;28;20535;-75
2023/04/12 06:47:31;;;;;;;2.50;1.30;;;7.10;99.90;;;;;;5071845;28;20209;-76
2023/04/12 06:49:57;;;;;;;2.40;1.17;;;7.10;99.90;;;;;;5068529;28;20426;-77
2023/04/12 06:52:26;;;;;;;4.80;1.40;;;7.20;99.90;;;;;;5066562;28;20431;-76
2023/04/12 06:54:52;;;;;;;2.27;1.07;;;7.20;99.90;;;;;;5068354;28;20182;-75
2023/04/12 06:57:18;;;;;;;3.63;1.50;;;7.20;99.90;;;;;;5069684;28;20562;-76
2023/04/12 06:59:43;;;;;;;2.37;1.27;;;7.30;99.90;;;;;;5069316;28;20455;-75
2023/04/12 07:02:09;;;;;;;2.77;1.30;;;7.30;99.90;;;;;;5069955;28;20201;-78
2023/04/12 07:04:35;;;;;;;2.50;1.00;;;7.40;99.90;;;;;;5068971;28;20656;-75
2023/04/12 07:07:00;;;;;;;2.33;1.17;;;7.50;99.90;;;;;;5069499;28;20181;-76
2023/04/12 07:09:26;;;;;;;1.80;0.87;;;7.50;99.90;;;;;;5068881;28;20564;-76
2023/04/12 07:11:52;;;;;;;2.10;1.17;;;7.60;99.90;;;;;;5071232;28;20223;-75
2023/04/12 07:14:17;;;;;;;2.67;1.20;;;7.60;99.90;;;;;;5065828;28;21906;-75
2023/04/12 07:16:43;;;;;;;6.40;1.00;;;7.60;99.90;;;;;;5068054;28;20218;-75
2023/04/12 07:19:09;;;;;;;7.57;1.83;;;7.70;99.90;;;;;;5069663;28;20272;-75
2023/04/12 07:21:34;;;;;;;7.20;1.30;;;7.70;99.90;;;;;;5066905;28;20553;-76
2023/04/12 07:24:00;;;;;;;5.00;1.30;;;7.70;99.90;;;;;;5067261;28;20185;-75
2023/04/12 07:26:26;;;;;;;4.43;1.17;;;7.90;99.90;;;;;;5068256;28;20173;-78
2023/04/12 07:28:51;;;;;;;3.77;1.60;;;7.80;99.90;;;;;;5067604;28;20208;-75
2023/04/12 07:31:17;;;;;;;3.97;1.67;;;7.90;99.90;;;;;;5068905;28;20196;-75
2023/04/12 07:33:43;;;;;;;4.83;1.10;;;7.90;99.90;;;;;;5065280;28;20596;-77
2023/04/12 07:36:09;;;;;;;2.80;1.63;;;8.00;99.90;;;;;;5068815;28;20192;-76
2023/04/12 07:38:35;;;;;;;2.93;1.33;;;8.00;99.90;;;;;;5067461;28;20420;-76
2023/04/12 07:41:01;;;;;;;5.30;1.30;;;8.10;99.90;;;;;;5068806;28;20427;-77
2023/04/12 07:43:26;;;;;;;4.97;1.57;;;8.10;99.90;;;;;;5066939;28;20197;-76
2023/04/12 07:45:54;;;;;;;3.30;1.90;;;8.20;99.90;;;;;;5068889;28;20176;-76
2023/04/12 07:48:20;;;;;;;1.90;1.30;;;8.30;99.90;;;;;;5069225;28;20631;-76
2023/04/12 07:50:46;;;;;;;6.03;2.00;;;8.50;99.90;;;;;;5071169;28;20507;-76
2023/04/12 07:53:24;;;;;;;3.53;1.70;;;8.70;99.90;;;;;;5067851;28;20205;-76
2023/04/12 07:55:50;;;;;;;1.53;0.83;;;8.70;99.90;;;;;;5068040;28;20177;-75
2023/04/12 07:58:16;;;;;;;3.37;1.10;;;8.80;99.90;;;;;;5068779;28;20412;-78
2023/04/12 08:00:45;;;;;;;1.33;0.73;;;8.90;99.90;;;;;;5068157;28;20872;-76
2023/04/12 08:03:12;;;;;;;5.53;1.70;;;8.80;99.90;;;;;;5066852;28;20518;-76
2023/04/12 08:05:37;;;;;;;2.43;0.90;;;8.90;99.90;;;;;;5069242;28;20427;-75
2023/04/12 08:08:03;;;;;;;4.80;0.80;;;8.90;99.90;;;;;;5067249;28;20459;-76
2023/04/12 08:10:30;;;;;;;2.60;1.40;;;9.10;99.90;;;;;;5067681;28;20185;-75
2023/04/12 08:12:56;;;;;;;3.87;1.50;;;9.10;99.90;;;;;;5068682;28;20251;-76
2023/04/12 08:15:21;;;;;;;6.53;1.33;;;9.10;99.90;;;;;;5067106;28;20412;-76
2023/04/12 08:17:47;;;;;;;2.83;0.90;;;9.20;99.90;;;;;;5069396;28;20530;-76
2023/04/12 08:20:14;;;;;;;3.83;1.30;;;9.30;99.90;;;;;;5069110;28;20210;-76
2023/04/12 08:22:41;;;;;;;2.30;1.07;;;9.30;99.90;;;;;;5066483;28;20207;-76
2023/04/12 08:25:07;;;;;;;6.73;1.03;;;9.40;99.90;;;;;;5068865;28;20415;-77
2023/04/12 08:27:33;;;;;;;2.17;0.80;;;9.40;99.90;;;;;;5069078;28;20505;-77
2023/04/12 08:29:59;;;;;;;1.80;0.97;;;9.40;99.90;;;;;;5065996;28;20900;-76
2023/04/12 08:32:25;;;;;;;1.80;0.80;;;9.40;99.90;;;;;;5067899;28;20254;-76
2023/04/12 08:34:51;;;;;;;1.83;0.70;;;9.40;99.90;;;;;;5070422;28;20419;-76
2023/04/12 08:37:17;;;;;;;2.93;1.30;;;9.40;99.90;;;;;;5070404;28;20183;-76
2023/04/12 08:39:42;;;;;;;1.80;1.03;;;9.50;99.90;;;;;;5068998;28;20448;-76
2023/04/12 08:42:09;;;;;;;2.60;1.03;;;9.50;99.90;;;;;;5064514;28;20423;-78
2023/04/12 08:44:38;;;;;;;2.80;0.83;;;9.50;99.90;;;;;;5067786;28;20177;-76
2023/04/12 08:47:05;;;;;;;1.70;0.70;;;9.60;99.90;;;;;;5069577;28;20462;-76
2023/04/12 08:49:32;;;;;;;1.93;0.83;;;9.50;99.90;;;;;;5065820;28;20538;-75
2023/04/12 08:52:05;;;;;;;3.20;1.10;;;9.60;99.90;;;;;;5067969;28;20464;-76
2023/04/12 08:54:32;;;;;;;1.73;0.93;;;9.40;99.90;;;;;;5064665;28;20450;-76
2023/04/12 08:57:00;;;;;;;3.57;1.37;;;9.40;99.90;;;;;;5067067;28;20511;-76
2023/04/12 08:59:29;;;;;;;2.00;0.80;;;9.30;99.90;;;;;;5067320;28;21043;-76
2023/04/12 09:01:56;;;;;;;1.60;1.00;;;9.30;99.90;;;;;;5066228;28;20458;-75
2023/04/12 09:04:22;;;;;;;2.70;1.40;;;9.20;99.90;;;;;;5067666;28;20853;-76
2023/04/12 09:06:48;;;;;;;3.60;1.70;;;9.40;99.90;;;;;;5067483;28;20424;-76
2023/04/12 09:09:13;;;;;;;4.40;1.80;;;9.40;99.90;;;;;;5065665;28;20458;-76
2023/04/12 09:11:39;;;;;;;4.13;1.77;;;9.50;99.90;;;;;;5066765;28;20177;-77
2023/04/12 09:14:21;;;;;;;2.47;1.47;;;9.50;99.90;;;;;;5064030;28;20174;-76
2023/04/12 09:16:47;;;;;;;2.80;1.40;;;9.50;99.90;;;;;;5063911;28;20232;-76
2023/04/12 09:19:12;;;;;;;2.17;1.07;;;9.60;99.90;;;;;;5067301;28;20947;-76
2023/04/12 09:21:52;;;;;;;3.77;1.23;;;9.70;99.90;;;;;;5064156;28;20225;-77
2023/04/12 09:24:18;;;;;;;2.90;1.47;;;9.80;99.90;;;;;;5067452;28;20560;-76
2023/04/12 09:26:44;;;;;;;4.60;1.50;;;9.80;99.90;;;;;;5067107;28;20423;-76
2023/04/12 09:29:26;;;;;;;2.73;1.50;;;9.70;99.90;;;;;;5068512;28;20212;-77
2023/04/12 09:32:02;;;;;;;3.50;1.37;;;9.80;99.90;;;;;;5065954;28;20215;-75
2023/04/12 09:34:29;;;;;;;2.07;0.93;;;9.70;99.90;;;;;;5067525;28;20411;-77
2023/04/12 09:36:56;;;;;;;3.60;1.40;;;9.70;99.90;;;;;;5070146;28;20416;-75
2023/04/12 09:39:34;;;;;;;4.70;0.90;;;9.70;99.90;;;;;;5069625;28;20510;-75
2023/04/12 09:42:07;;;;;;;5.73;1.17;;;9.80;99.90;;;;;;5069979;28;20481;-74
2023/04/12 09:44:33;;;;;;;1.97;1.30;;;9.90;99.90;;;;;;5071464;28;20759;-74
2023/04/12 09:47:01;;;;;;;1.70;0.90;;;10.10;99.90;;;;;;5071206;28;20430;-74
2023/04/12 09:49:39;;;;;;;9.93;1.40;;;10.00;99.90;;;;;;5069804;28;20654;-77
2023/04/12 09:52:10;;;;;;;2.60;1.30;;;10.00;99.90;;;;;;5069749;28;20424;-74
2023/04/12 09:54:49;;;;;;;4.77;1.63;;;10.10;99.90;;;;;;5069938;28;20450;-74
2023/04/12 09:57:17;;;;;;;3.10;1.80;;;10.00;99.90;;;;;;5071001;28;20395;-75
2023/04/12 09:59:43;;;;;;;3.00;1.67;;;10.00;99.90;;;;;;5069245;28;20411;-76
2023/04/12 10:02:27;;;;;;;1.53;0.90;;;10.20;99.90;;;;;;5068141;28;20447;-75
2023/04/12 10:04:53;;;;;;;7.37;0.90;;;10.20;99.90;;;;;;5070142;28;20173;-75
2023/04/12 10:07:19;;;;;;;2.27;1.20;;;10.20;99.90;;;;;;5068708;28;20793;-74
2023/04/12 10:09:45;;;;;;;3.00;1.37;;;10.20;99.90;;;;;;5070936;28;20908;-76
2023/04/12 10:12:11;;;;;;;4.50;1.17;;;10.30;99.90;;;;;;5069143;28;20439;-74
2023/04/12 10:14:37;;;;;;;4.10;1.50;;;10.30;99.90;;;;;;5070932;28;20422;-74
2023/04/12 10:17:04;;;;;;;2.27;1.23;;;10.40;99.90;;;;;;5071593;28;20665;-76
2023/04/12 10:19:32;;;;;;;4.63;1.73;;;10.40;99.90;;;;;;5071315;28;20447;-76
2023/04/12 10:21:59;;;;;;;3.63;1.53;;;10.50;99.90;;;;;;5071330;28;20951;-77
2023/04/12 10:24:27;;;;;;;1.40;0.70;;;10.50;99.90;;;;;;5066843;28;20418;-79
2023/04/12 10:26:54;;;;;;;6.60;1.40;;;10.70;99.90;;;;;;5072347;28;20539;-75
2023/04/12 10:29:35;;;;;;;2.60;1.53;;;10.60;99.90;;;;;;5067830;28;20754;-77
2023/04/12 10:32:23;;;;;;;2.00;1.00;;;10.60;99.90;;;;;;5067984;28;20476;-78
2023/04/12 10:34:52;;;;;;;3.87;1.30;;;10.60;99.90;;;;;;5071370;28;20995;-75
2023/04/12 10:37:18;;;;;;;8.13;1.53;;;10.70;99.90;;;;;;5073250;28;20482;-76
2023/04/12 10:39:51;;;;;;;2.50;1.30;;;10.70;99.90;;;;;;5070573;28;20569;-73
2023/04/12 10:42:26;;;;;;;3.10;1.57;;;10.90;99.90;;;;;;5065151;28;20243;-76
2023/04/12 10:44:53;;;;;;;13.13;1.77;;;11.10;99.90;;;;;;5069562;28;20430;-78
2023/04/12 10:48:05;;;;;;;5.40;1.27;;;11.30;99.90;;;;;;5069449;28;20531;-79
2023/04/12 10:50:34;;;;;;;3.07;1.20;;;11.30;99.90;;;;;;5066636;28;20431;-75
2023/04/12 10:53:11;;;;;;;5.20;1.40;;;11.30;99.90;;;;;;5070221;28;20989;-77
2023/04/12 10:55:44;;;;;;;2.70;0.93;;;11.40;99.90;;;;;;5069580;28;20576;-75
2023/04/12 10:58:10;;;;;;;1.40;0.70;;;11.30;99.90;;;;;;5067959;28;20914;-75
2023/04/12 11:00:58;;;;;;;1.30;0.67;;;11.30;99.90;;;;;;5069665;28;20446;-75
2023/04/12 11:03:25;;;;;;;4.83;1.20;;;11.30;99.90;;;;;;5067115;28;20453;-74
2023/04/12 11:06:02;;;;;;;2.60;0.93;;;11.40;99.90;;;;;;5069432;28;20477;-76
2023/04/12 11:08:28;;;;;;;1.70;1.00;;;11.50;99.90;;;;;;5066276;28;20954;-76
2023/04/12 11:11:16;;;;;;;3.20;1.00;;;11.40;99.90;;;;;;5070293;28;20421;-78
2023/04/12 11:13:42;;;;;;;2.13;0.90;;;11.40;99.90;;;;;;5067149;28;20435;-75
2023/04/12 11:16:11;;;;;;;1.77;0.80;;;11.40;99.90;;;;;;5070412;28;20921;-75
2023/04/12 11:18:37;;;;;;;1.63;0.77;;;11.50;99.90;;;;;;5066033;28;20236;-73
2023/04/12 11:21:04;;;;;;;7.40;1.10;;;11.70;99.90;;;;;;5068889;28;20552;-75
2023/04/12 11:23:30;;;;;;;2.90;0.80;;;11.60;99.90;;;;;;5068501;28;20431;-75
2023/04/12 11:25:56;;;;;;;2.83;1.20;;;11.50;99.90;;;;;;5070864;28;20462;-76
2023/04/12 11:28:22;;;;;;;1.80;0.90;;;11.50;99.90;;;;;;5067764;28;20491;-75
2023/04/12 11:30:52;;;;;;;3.93;0.60;;;11.60;99.90;;;;;;5069093;28;20185;-75
2023/04/12 11:33:31;;;;;;;2.97;1.40;;;11.70;99.90;;;;;;5064529;28;20204;-75
2023/04/12 11:35:56;;;;;;;3.27;0.97;;;11.80;99.90;;;;;;5069399;28;20456;-76
2023/04/12 11:38:22;;;;;;;1.30;0.60;;;11.80;99.90;;;;;;5071342;28;20961;-76
2023/04/12 11:40:48;;;;;;;2.33;0.80;;;12.00;99.90;;;;;;5072344;28;20237;-74
2023/04/12 11:43:20;;;;;;;1.60;1.00;;;12.30;99.90;;;;;;5072644;28;20203;-79
2023/04/12 11:45:46;;;;;;;6.07;1.33;;;12.30;99.90;;;;;;5072570;28;20427;-75
2023/04/12 11:48:12;;;;;;;1.70;0.80;;;12.50;99.90;;;;;;5073432;28;20482;-75
2023/04/12 11:50:39;;;;;;;2.30;0.60;;;12.70;99.90;;;;;;5074731;28;20243;-75
2023/04/12 11:53:15;;;;;;;1.90;0.87;;;12.80;99.90;;;;;;5079915;28;20213;-79
2023/04/12 11:55:46;;;;;;;4.33;1.10;;;13.10;99.90;;;;;;5086718;28;20433;-82
2023/04/12 11:58:11;;;;;;;2.30;0.70;;;12.80;99.90;;;;;;5091301;28;20411;-81
2023/04/12 12:00:40;;;;;;;3.40;0.60;;;12.60;99.90;;;;;;5093430;28;20457;-81
2023/04/12 12:03:05;;;;;;;2.23;0.80;;;12.60;99.90;;;;;;5110912;28;20208;-81
2023/04/12 12:05:35;;;;;;;5.13;0.90;;;12.50;99.90;;;;;;5094503;28;20487;-80
2023/04/12 12:08:04;;;;;;;1.80;0.77;;;12.40;99.90;;;;;;5090740;28;20208;-79
2023/04/12 12:10:30;;;;;;;1.40;0.60;;;12.40;99.90;;;;;;5065686;28;20420;-72
2023/04/12 12:12:59;;;;;;;2.00;0.93;;;12.40;99.90;;;;;;5070788;28;20450;-74
2023/04/12 12:15:29;;;;;;;3.00;0.70;;;12.50;99.90;;;;;;5068418;28;20303;-74
2023/04/12 12:17:55;;;;;;;2.27;0.73;;;12.60;99.90;;;;;;5070937;28;20455;-75
2023/04/12 12:20:23;;;;;;;1.87;0.80;;;12.60;99.90;;;;;;5069177;28;20473;-75
2023/04/12 12:22:49;;;;;;;1.50;0.70;;;12.50;99.90;;;;;;5066433;28;20208;-75
2023/04/12 12:25:17;;;;;;;2.80;0.87;;;12.60;99.90;;;;;;5067889;28;20411;-76
2023/04/12 12:27:47;;;;;;;1.40;0.80;;;12.70;99.90;;;;;;5067743;28;20463;-74
2023/04/12 12:30:16;;;;;;;6.10;1.20;;;13.00;99.90;;;;;;5068048;28;20442;-74
2023/04/12 12:32:43;;;;;;;1.87;0.80;;;13.20;99.90;;;;;;5063609;28;20463;-78
2023/04/12 12:35:11;;;;;;;3.73;1.10;;;13.60;99.90;;;;;;5070464;28;20442;-74
2023/04/12 12:37:37;;;;;;;1.93;0.90;;;13.90;99.90;;;;;;5069490;28;20428;-72
2023/04/12 12:40:14;;;;;;;2.67;0.93;;;13.70;99.90;;;;;;5068993;28;20484;-74
2023/04/12 12:42:53;;;;;;;8.00;0.80;;;13.80;99.90;;;;;;5069233;28;21004;-74
2023/04/12 12:45:24;;;;;;;3.40;0.80;;;13.40;99.90;;;;;;5067749;28;20429;-74
2023/04/12 12:47:58;;;;;;;1.77;0.87;;;13.10;99.90;;;;;;5082358;28;20466;-74
2023/04/12 12:50:26;;;;;;;1.40;0.70;;;13.00;99.90;;;;;;5068633;28;20423;-74
2023/04/12 12:52:53;;;;;;;1.30;0.60;;;12.90;99.90;;;;;;5067516;28;20439;-75
2023/04/12 12:55:20;;;;;;;3.03;0.60;;;12.80;99.90;;;;;;5066835;28;20424;-75
2023/04/12 12:57:47;;;;;;;1.73;0.80;;;12.80;99.90;;;;;;5070305;28;20427;-74
2023/04/12 13:00:14;;;;;;;1.30;0.60;;;13.00;99.90;;;;;;5068868;28;20422;-77